createdAt,value
2022-11-08T00:01:02.731Z,3.30
2022-11-08T00:06:43.050Z,3.13
2022-11-08T00:12:24.039Z,3.28
2022-11-08T00:17:45.819Z,3.40
2022-11-08T00:23:07.574Z,3.15
2022-11-08T00:28:29.320Z,3.67
2022-11-08T00:33:51.064Z,3.13
2022-11-08T00:39:12.823Z,3.13
2022-11-08T00:44:35.195Z,3.38
2022-11-08T00:49:56.894Z,3.50
2022-11-08T00:55:18.659Z,3.47
2022-11-08T01:00:40.385Z,3.20
2022-11-08T01:06:05.416Z,3.40
2022-11-08T01:11:27.587Z,3.35
2022-11-08T01:16:49.302Z,3.65
2022-11-08T01:22:11.012Z,3.58
2022-11-08T01:27:32.777Z,3.50
2022-11-08T01:32:54.683Z,5.03
2022-11-08T01:38:16.822Z,3.55
2022-11-08T01:43:42.014Z,3.73
2022-11-08T01:49:12.834Z,3.70
2022-11-08T01:54:46.700Z,4.67
2022-11-08T02:00:12.411Z,4.27
2022-11-08T02:05:34.356Z,4.03
2022-11-08T02:10:56.234Z,3.70
2022-11-08T02:16:18.046Z,4.38
2022-11-08T02:21:51.550Z,4.20
2022-11-08T02:27:14.422Z,4.30
2022-11-08T02:32:41.083Z,4.80
2022-11-08T02:38:02.897Z,4.40
2022-11-08T02:43:25.952Z,3.83
2022-11-08T02:48:47.735Z,4.30
2022-11-08T02:54:09.448Z,4.83
2022-11-08T02:59:31.208Z,4.20
2022-11-08T03:04:52.928Z,3.92
2022-11-08T03:10:15.988Z,4.10
2022-11-08T03:15:37.780Z,3.50
2022-11-08T03:21:01.552Z,3.35
2022-11-08T03:26:23.287Z,3.20
2022-11-08T03:31:45.161Z,3.35
2022-11-08T03:37:08.968Z,3.63
2022-11-08T03:42:30.722Z,3.95
2022-11-08T03:47:52.451Z,3.45
2022-11-08T03:53:14.191Z,2.90
2022-11-08T03:58:35.968Z,3.22
2022-11-08T04:03:57.800Z,3.00
2022-11-08T04:09:21.687Z,2.70
2022-11-08T04:15:01.972Z,2.88
2022-11-08T04:20:42.208Z,2.60
2022-11-08T04:26:07.143Z,2.60
2022-11-08T04:31:28.948Z,3.27
2022-11-08T04:36:50.696Z,3.37
2022-11-08T04:42:12.396Z,3.00
2022-11-08T04:47:39.440Z,3.27
2022-11-08T04:53:03.487Z,3.00
2022-11-08T04:58:25.205Z,3.22
2022-11-08T05:03:48.647Z,3.00
2022-11-08T05:09:13.120Z,4.97
2022-11-08T05:14:34.847Z,3.63
2022-11-08T05:20:15.195Z,3.45
2022-11-08T05:25:40.273Z,2.95
2022-11-08T05:31:02.074Z,3.27
2022-11-08T05:36:23.786Z,3.60
2022-11-08T05:41:45.525Z,5.17
2022-11-08T05:47:07.273Z,3.97
2022-11-08T05:52:29.548Z,3.50
2022-11-08T05:57:51.395Z,2.97
2022-11-08T06:03:13.228Z,3.37
2022-11-08T06:08:35.226Z,2.95
2022-11-08T06:13:57.076Z,3.72
2022-11-08T06:19:18.888Z,3.20
2022-11-08T06:24:40.683Z,3.10
2022-11-08T06:30:04.230Z,3.17
2022-11-08T06:35:26.069Z,4.03
2022-11-08T06:40:47.930Z,3.83
2022-11-08T06:46:09.708Z,4.07
2022-11-08T06:51:31.622Z,5.30
2022-11-08T06:56:55.771Z,4.93
2022-11-08T07:02:18.813Z,4.38
2022-11-08T07:07:40.663Z,3.90
2022-11-08T07:13:11.032Z,4.20
2022-11-08T07:18:32.878Z,4.10
2022-11-08T07:23:54.701Z,4.00
2022-11-08T07:29:16.438Z,4.95
2022-11-08T07:34:38.170Z,5.10
2022-11-08T07:39:59.891Z,4.68
2022-11-08T07:45:21.607Z,5.65
2022-11-08T07:50:43.429Z,4.40
2022-11-08T07:56:05.355Z,5.17
2022-11-08T08:01:27.194Z,5.05
2022-11-08T08:06:48.939Z,5.15
2022-11-08T08:12:10.742Z,5.97
2022-11-08T08:17:32.453Z,5.93
2022-11-08T08:22:54.154Z,6.45
2022-11-08T08:28:15.997Z,6.18
2022-11-08T08:33:38.412Z,6.28
2022-11-08T08:39:00.368Z,6.50
2022-11-08T08:44:22.076Z,5.93
2022-11-08T08:49:43.891Z,5.80
2022-11-08T08:55:06.370Z,4.50
2022-11-08T09:06:10.158Z,5.32
2022-11-08T09:11:31.995Z,5.80
2022-11-08T09:16:54.208Z,5.32
2022-11-08T09:22:16.122Z,5.35
2022-11-08T09:27:37.869Z,5.90
2022-11-08T09:33:01.292Z,6.80
2022-11-08T09:38:24.119Z,5.75
2022-11-08T09:44:22.556Z,5.68
2022-11-08T09:50:12.090Z,5.55
2022-11-08T09:55:40.745Z,5.50
2022-11-08T10:01:03.852Z,4.77
2022-11-08T10:06:47.963Z,5.30
2022-11-08T10:12:25.254Z,5.90
2022-11-08T10:18:15.441Z,6.40
2022-11-08T10:23:45.593Z,5.20
2022-11-08T10:29:15.568Z,5.35
2022-11-08T10:34:46.473Z,5.50
2022-11-08T10:40:25.069Z,5.80
2022-11-08T10:45:46.821Z,5.50
2022-11-08T10:51:08.575Z,5.30
2022-11-08T10:56:32.982Z,4.82
2022-11-08T11:01:58.135Z,4.53
2022-11-08T11:07:35.320Z,5.20
2022-11-08T11:13:14.363Z,4.28
2022-11-08T11:18:52.782Z,4.72
2022-11-08T11:24:20.402Z,4.90
2022-11-08T11:29:42.543Z,4.00
2022-11-08T11:35:07.353Z,3.47
2022-11-08T11:40:44.082Z,5.82
2022-11-08T11:46:12.824Z,3.80
2022-11-08T11:51:34.671Z,2.40
2022-11-08T11:57:14.617Z,2.20
2022-11-08T12:03:04.280Z,1.77
2022-11-08T12:08:55.352Z,1.98
2022-11-08T12:14:35.515Z,2.35
2022-11-08T12:20:25.644Z,2.00
2022-11-08T12:26:02.750Z,1.88
2022-11-08T12:31:35.059Z,1.20
2022-11-08T12:37:04.866Z,1.40
2022-11-08T12:42:45.146Z,1.58
2022-11-08T12:48:28.589Z,1.50
2022-11-08T12:54:02.015Z,1.42
2022-11-08T13:00:02.516Z,1.20
2022-11-08T13:05:37.482Z,1.30
2022-11-08T13:11:04.800Z,1.20
2022-11-08T13:16:28.923Z,1.30
2022-11-08T13:21:51.771Z,1.40
2022-11-08T13:27:23.578Z,1.85
2022-11-08T13:33:14.865Z,1.55
2022-11-08T13:39:08.007Z,3.72
2022-11-08T13:44:54.800Z,6.20
2022-11-08T13:50:28.929Z,6.28
2022-11-08T13:56:17.405Z,8.98
2022-11-08T14:01:45.529Z,11.75
2022-11-08T14:07:24.971Z,6.93
2022-11-08T14:13:15.110Z,4.25
2022-11-08T14:18:39.203Z,6.72
2022-11-08T14:24:01.022Z,3.75
2022-11-08T14:29:24.883Z,2.97
2022-11-08T14:34:46.759Z,5.50
2022-11-08T14:40:17.550Z,4.93
2022-11-08T14:45:43.325Z,11.80
2022-11-08T14:51:06.228Z,6.97
2022-11-08T14:56:38.399Z,6.40
2022-11-08T15:02:00.313Z,5.22
2022-11-08T15:07:23.774Z,6.20
2022-11-08T15:12:45.636Z,3.40
2022-11-08T15:18:17.724Z,1.90
2022-11-08T15:23:42.299Z,2.10
2022-11-08T15:29:13.040Z,1.77
2022-11-08T15:34:39.520Z,3.53
2022-11-08T15:40:07.575Z,3.90
2022-11-08T15:45:35.695Z,2.63
2022-11-08T15:50:58.219Z,2.00
2022-11-08T15:56:20.337Z,1.77
2022-11-08T16:02:02.456Z,1.65
2022-11-08T16:07:24.227Z,2.13
2022-11-08T16:12:47.674Z,3.15
2022-11-08T16:18:10.204Z,2.97
2022-11-08T16:23:31.961Z,4.28
2022-11-08T16:28:53.688Z,4.75
2022-11-08T16:34:15.502Z,5.70
2022-11-08T16:39:37.217Z,3.70
2022-11-08T16:44:58.927Z,5.05
2022-11-08T16:50:25.947Z,4.20
2022-11-08T16:55:48.203Z,4.97
2022-11-08T17:01:31.536Z,4.68
2022-11-08T17:06:53.339Z,3.42
2022-11-08T17:12:15.105Z,4.60
2022-11-08T17:17:36.825Z,5.78
2022-11-08T17:22:58.558Z,5.13
2022-11-08T17:28:20.548Z,4.13
2022-11-08T17:33:43.265Z,3.97
2022-11-08T17:39:06.048Z,5.93
2022-11-08T17:44:29.428Z,6.18
2022-11-08T17:49:51.635Z,6.03
2022-11-08T17:55:13.377Z,6.55
2022-11-08T18:00:35.164Z,5.13
2022-11-08T18:05:59.353Z,5.47
2022-11-08T18:11:21.092Z,4.82
2022-11-08T18:16:42.996Z,4.30
2022-11-08T18:22:04.809Z,5.47
2022-11-08T18:27:26.591Z,4.53
2022-11-08T18:32:48.365Z,4.93
2022-11-08T18:38:12.008Z,4.85
2022-11-08T18:43:34.573Z,4.25
2022-11-08T18:48:56.476Z,5.45
2022-11-08T18:54:18.318Z,5.53
2022-11-08T18:59:40.034Z,5.03
2022-11-08T19:05:01.920Z,4.50
2022-11-08T19:10:23.648Z,4.63
2022-11-08T19:15:45.587Z,4.15
2022-11-08T19:21:12.157Z,4.93
2022-11-08T19:26:33.929Z,4.25
2022-11-08T19:31:55.640Z,4.43
2022-11-08T19:37:17.384Z,4.85
2022-11-08T19:42:39.175Z,4.40
2022-11-08T19:48:01.006Z,5.10
2022-11-08T19:53:22.799Z,7.55
2022-11-08T19:58:45.112Z,9.07
2022-11-08T20:04:09.462Z,5.22
2022-11-08T20:09:35.564Z,5.43
2022-11-08T20:14:58.040Z,5.60
2022-11-08T20:20:20.276Z,5.38
2022-11-08T20:25:42.161Z,4.78
2022-11-08T20:31:08.708Z,5.38
2022-11-08T20:36:34.874Z,6.10
2022-11-08T20:41:58.008Z,5.22
2022-11-08T20:47:20.421Z,4.82
2022-11-08T20:52:42.271Z,6.95
2022-11-08T20:58:03.982Z,5.40
2022-11-08T21:03:29.347Z,4.93
2022-11-08T21:09:02.681Z,7.55
2022-11-08T21:14:29.531Z,4.43
2022-11-08T21:19:51.857Z,5.38
2022-11-08T21:25:13.775Z,6.68
2022-11-08T21:30:36.068Z,5.47
2022-11-08T21:36:01.331Z,5.88
2022-11-08T21:41:23.144Z,5.03
2022-11-08T21:46:44.872Z,4.82
2022-11-08T21:52:06.719Z,4.50
2022-11-08T21:57:28.557Z,5.50
2022-11-08T22:02:51.554Z,5.00
2022-11-08T22:08:13.417Z,6.88
2022-11-08T22:13:35.272Z,5.50
2022-11-08T22:19:05.757Z,4.38
2022-11-08T22:24:28.046Z,3.65
2022-11-08T22:29:49.916Z,3.95
2022-11-08T22:35:11.610Z,4.25
2022-11-08T22:40:33.376Z,4.00
2022-11-08T22:45:55.115Z,4.35
2022-11-08T22:51:16.930Z,4.10
2022-11-08T22:56:40.150Z,4.18
2022-11-08T23:02:01.868Z,4.47
2022-11-08T23:07:23.584Z,4.72
2022-11-08T23:13:03.867Z,4.20
2022-11-08T23:18:27.188Z,5.80
2022-11-08T23:24:07.532Z,4.07
2022-11-08T23:29:47.643Z,3.17
2022-11-08T23:35:10.387Z,3.08
2022-11-08T23:40:50.819Z,3.63
2022-11-08T23:46:12.891Z,3.70
2022-11-08T23:51:34.617Z,4.90
2022-11-08T23:56:56.328Z,5.45
